createdAt,value
2016-06-05T00:00:46.245Z,993.59
2016-06-05T00:01:46.264Z,993.58
2016-06-05T00:02:46.266Z,993.57
2016-06-05T00:03:46.285Z,993.63
2016-06-05T00:04:46.288Z,993.61
2016-06-05T00:05:46.291Z,993.61
2016-06-05T00:06:46.293Z,993.6
2016-06-05T00:07:46.310Z,993.64
2016-06-05T00:08:46.314Z,993.6
2016-06-05T00:09:46.551Z,993.63
2016-06-05T00:11:46.541Z,993.59
2016-06-05T00:12:46.560Z,993.58
2016-06-05T00:13:46.562Z,993.58
2016-06-05T00:14:46.767Z,993.58
2016-06-05T00:15:46.379Z,993.56
2016-06-05T00:16:46.601Z,993.55
2016-06-05T00:17:46.494Z,993.57
2016-06-05T00:18:47.560Z,993.54
2016-06-05T00:19:46.435Z,993.57
2016-06-05T00:20:46.437Z,993.57
2016-06-05T00:21:46.627Z,993.51
2016-06-05T00:22:46.630Z,993.58
2016-06-05T00:23:46.461Z,993.59
2016-06-05T00:24:46.854Z,993.6
2016-06-05T00:25:46.451Z,993.62
2016-06-05T00:28:46.490Z,993.53
2016-06-05T00:29:46.508Z,993.56
2016-06-05T00:30:46.511Z,993.57
2016-06-05T00:31:46.733Z,993.59
2016-06-05T00:32:46.531Z,993.61
2016-06-05T00:33:46.722Z,993.59
2016-06-05T00:34:46.553Z,993.59
2016-06-05T00:35:46.539Z,993.57
2016-06-05T00:36:46.542Z,993.57
2016-06-05T00:37:46.561Z,993.58
2016-06-05T00:38:46.564Z,993.57
2016-06-05T00:40:46.585Z,993.49
2016-06-05T00:41:46.603Z,993.52
2016-06-05T00:42:46.606Z,993.52
2016-06-05T00:43:46.608Z,993.5
2016-06-05T00:44:46.610Z,993.52
2016-06-05T00:45:46.614Z,993.55
2016-06-05T00:46:46.632Z,993.54
2016-06-05T00:47:46.634Z,993.53
2016-06-05T00:48:46.637Z,993.54
2016-06-05T00:49:46.890Z,993.53
2016-06-05T00:50:46.705Z,993.56
2016-06-05T00:51:46.693Z,993.56
2016-06-05T00:52:46.695Z,993.58
2016-06-05T00:54:46.701Z,993.57
2016-06-05T00:55:46.922Z,993.57
2016-06-05T00:56:46.721Z,993.56
2016-06-05T00:57:46.724Z,993.59
2016-06-05T00:58:46.727Z,993.54
2016-06-05T00:59:46.729Z,993.53
2016-06-05T01:00:46.732Z,993.49
2016-06-05T01:01:46.735Z,993.51
2016-06-05T01:02:46.753Z,993.52
2016-06-05T01:03:46.755Z,993.52
2016-06-05T01:04:46.759Z,993.51
2016-06-05T01:05:46.777Z,993.51
2016-06-05T01:06:46.780Z,993.55
2016-06-05T01:07:46.783Z,993.49
2016-06-05T01:08:47.003Z,993.49
2016-06-05T01:09:46.803Z,993.48
2016-06-05T01:10:46.838Z,993.48
2016-06-05T01:11:46.856Z,993.51
2016-06-05T01:12:46.827Z,993.5
2016-06-05T01:13:46.861Z,993.49
2016-06-05T01:14:46.863Z,993.45
2016-06-05T01:15:47.054Z,993.49
2016-06-05T01:16:46.869Z,993.53
2016-06-05T01:17:46.871Z,993.5
2016-06-05T01:18:46.890Z,993.47
2016-06-05T01:19:46.877Z,993.48
2016-06-05T01:20:47.099Z,993.47
2016-06-05T01:21:46.914Z,993.51
2016-06-05T01:22:47.135Z,993.47
2016-06-05T01:23:47.123Z,993.46
2016-06-05T01:24:47.156Z,993.49
2016-06-05T01:25:47.565Z,993.5
2016-06-05T01:26:46.974Z,993.55
2016-06-05T01:32:47.006Z,993.58
2016-06-05T01:33:47.008Z,993.55
2016-06-05T01:34:47.011Z,993.58
2016-06-05T01:35:47.014Z,993.54
2016-06-05T01:36:47.236Z,993.53
2016-06-05T01:37:47.036Z,993.57
2016-06-05T01:38:47.038Z,993.56
2016-06-05T01:39:47.040Z,993.54
2016-06-05T01:40:47.044Z,993.48
2016-06-05T01:41:47.061Z,993.51
2016-06-05T01:42:47.064Z,993.54
2016-06-05T01:43:47.083Z,993.52
2016-06-05T01:44:47.086Z,993.52
2016-06-05T01:45:47.088Z,993.51
2016-06-05T01:46:47.105Z,993.52
2016-06-05T01:47:47.093Z,993.51
2016-06-05T01:48:47.111Z,993.54
2016-06-05T01:49:47.113Z,993.53
2016-06-05T01:50:47.117Z,993.53
2016-06-05T01:51:47.119Z,993.55
2016-06-05T01:52:47.341Z,993.58
2016-06-05T01:53:47.140Z,993.56
2016-06-05T01:54:47.143Z,993.59
2016-06-05T01:55:47.162Z,993.56
2016-06-05T01:56:47.180Z,993.58
2016-06-05T01:57:47.167Z,993.55
2016-06-05T01:58:47.216Z,993.56
2016-06-05T01:59:47.187Z,993.57
2016-06-05T02:00:47.191Z,993.54
2016-06-05T02:01:47.193Z,993.54
2016-06-05T02:02:47.228Z,993.55
2016-06-05T02:03:47.215Z,993.51
2016-06-05T02:04:47.233Z,993.48
2016-06-05T02:05:47.454Z,993.48
2016-06-05T02:06:47.238Z,993.45
2016-06-05T02:07:47.241Z,993.45
2016-06-05T02:08:47.275Z,993.45
2016-06-05T02:09:47.261Z,993.4
2016-06-05T02:10:47.264Z,993.44
2016-06-05T02:11:47.267Z,993.45
2016-06-05T02:12:47.286Z,993.47
2016-06-05T02:13:47.522Z,993.49
2016-06-05T02:14:47.322Z,993.52
2016-06-05T02:15:47.324Z,993.54
2016-06-05T02:16:47.343Z,993.55
2016-06-05T02:17:47.346Z,993.54
2016-06-05T02:18:47.348Z,993.53
2016-06-05T02:19:47.351Z,993.54
2016-06-05T02:20:47.572Z,993.54
2016-06-05T02:21:47.357Z,993.54
2016-06-05T02:22:47.359Z,993.55
2016-06-05T02:23:47.362Z,993.58
2016-06-05T02:24:47.379Z,993.58
2016-06-05T02:25:47.382Z,993.53
2016-06-05T02:26:47.386Z,993.53
2016-06-05T02:27:47.404Z,993.53
2016-06-05T02:28:47.859Z,993.47
2016-06-05T02:29:47.425Z,993.54
2016-06-05T02:30:47.412Z,993.53
2016-06-05T02:31:47.415Z,993.52
2016-06-05T02:32:47.433Z,993.54
2016-06-05T02:33:47.842Z,993.52
2016-06-05T02:34:47.642Z,993.54
2016-06-05T02:35:47.441Z,993.58
2016-06-05T02:36:47.459Z,993.59
2016-06-05T02:37:47.462Z,993.57
2016-06-05T02:38:47.668Z,993.63
2016-06-05T02:39:47.483Z,993.64
2016-06-05T02:40:47.485Z,993.6
2016-06-05T02:41:47.504Z,993.63
2016-06-05T02:42:47.491Z,993.61
2016-06-05T02:43:47.508Z,993.54
2016-06-05T02:44:47.512Z,993.56
2016-06-05T02:45:47.514Z,993.56
2016-06-05T02:46:47.517Z,993.56
2016-06-05T02:47:47.536Z,993.57
2016-06-05T02:48:47.758Z,993.55
2016-06-05T02:49:47.541Z,993.6
2016-06-05T02:50:47.560Z,993.57
2016-06-05T02:51:47.563Z,993.59
2016-06-05T02:52:47.566Z,993.62
2016-06-05T02:53:47.786Z,993.62
2016-06-05T02:54:47.585Z,993.63
2016-06-05T02:55:47.589Z,993.63
2016-06-05T02:56:47.607Z,993.63
2016-06-05T02:57:47.609Z,993.65
2016-06-05T02:58:48.269Z,993.67
2016-06-05T02:59:47.818Z,993.66
2016-06-05T03:00:47.648Z,993.7
2016-06-05T03:01:47.636Z,993.7
2016-06-05T03:02:47.639Z,993.72
2016-06-05T03:03:47.876Z,993.72
2016-06-05T03:04:47.644Z,993.74
2016-06-05T03:05:47.662Z,993.7
2016-06-05T03:06:48.086Z,993.74
2016-06-05T03:07:47.870Z,993.72
2016-06-05T03:08:47.670Z,993.67
2016-06-05T03:09:47.688Z,993.7
2016-06-05T03:10:47.692Z,993.68
2016-06-05T03:11:47.695Z,993.7
2016-06-05T03:12:47.947Z,993.69
2016-06-05T03:13:48.153Z,993.7
2016-06-05T03:15:47.924Z,993.69
2016-06-05T03:16:48.130Z,993.73
2016-06-05T03:17:47.741Z,993.75
2016-06-05T03:18:47.744Z,993.72
2016-06-05T03:19:47.777Z,993.73
2016-06-05T03:20:48.171Z,993.74
2016-06-05T03:21:47.768Z,993.74
2016-06-05T03:22:48.379Z,993.77
2016-06-05T03:23:47.773Z,993.78
2016-06-05T03:24:47.791Z,993.82
2016-06-05T03:25:47.794Z,993.86
2016-06-05T03:26:47.844Z,993.87
2016-06-05T03:27:47.799Z,993.83
2016-06-05T03:28:47.818Z,993.89
2016-06-05T03:29:47.821Z,993.92
2016-06-05T03:30:47.823Z,993.92
2016-06-05T03:31:48.045Z,993.95
2016-06-05T03:32:47.845Z,993.93
2016-06-05T03:33:48.050Z,993.97
2016-06-05T03:34:47.850Z,993.99
2016-06-05T03:35:48.071Z,994.03
2016-06-05T03:36:47.871Z,994.03
2016-06-05T03:37:47.873Z,994.01
2016-06-05T03:38:47.876Z,994.01
2016-06-05T03:39:47.895Z,994.05
2016-06-05T03:40:47.912Z,994.03
2016-06-05T03:41:47.900Z,994.06
2016-06-05T03:42:47.964Z,994.06
2016-06-05T03:43:47.953Z,994.06
2016-06-05T03:44:47.923Z,994.09
2016-06-05T03:45:48.160Z,994.13
2016-06-05T03:46:48.178Z,994.14
2016-06-05T03:47:47.947Z,994.16
2016-06-05T03:48:48.184Z,994.13
2016-06-05T03:49:47.969Z,994.21
2016-06-05T03:50:48.205Z,994.17
2016-06-05T03:51:48.208Z,994.2
2016-06-05T03:52:48.211Z,994.24
2016-06-05T03:53:47.994Z,994.22
2016-06-05T03:54:47.997Z,994.23
2016-06-05T03:55:48.000Z,994.26
2016-06-05T03:58:48.039Z,994.32
2016-06-05T04:02:48.051Z,994.3
2016-06-05T04:05:48.105Z,994.34
2016-06-05T04:06:48.107Z,994.35
2016-06-05T04:08:48.128Z,994.41
2016-06-05T04:09:48.131Z,994.37
2016-06-05T04:10:48.337Z,994.34
2016-06-05T04:11:48.137Z,994.35
2016-06-05T04:12:48.905Z,994.33
2016-06-05T04:13:48.142Z,994.33
2016-06-05T04:14:48.161Z,994.35
2016-06-05T04:15:48.148Z,994.36
2016-06-05T04:16:48.166Z,994.36
2016-06-05T04:17:48.176Z,994.37
2016-06-05T04:18:48.221Z,994.39
2016-06-05T04:19:48.454Z,994.4
2016-06-05T04:20:48.485Z,994.39
2016-06-05T04:21:48.531Z,994.39
2016-06-05T04:22:48.557Z,994.38
2016-06-05T04:23:48.366Z,994.34
2016-06-05T04:24:48.785Z,994.34
2016-06-05T04:25:49.048Z,994.39
2016-06-05T04:26:48.421Z,994.36
2016-06-05T04:27:48.478Z,994.32
2016-06-05T04:28:48.470Z,994.35
2016-06-05T04:29:48.695Z,994.34
2016-06-05T04:30:48.498Z,994.37
2016-06-05T04:31:48.489Z,994.34
2016-06-05T04:32:48.495Z,994.37
2016-06-05T04:33:48.513Z,994.35
2016-06-05T04:34:48.722Z,994.37
2016-06-05T04:35:48.537Z,994.41
2016-06-05T04:36:48.525Z,994.4
2016-06-05T04:37:48.747Z,994.43
2016-06-05T04:38:48.548Z,994.45
2016-06-05T04:39:48.597Z,994.47
2016-06-05T04:40:48.804Z,994.49
2016-06-05T04:42:48.982Z,994.48
2016-06-05T04:43:48.611Z,994.52
2016-06-05T04:44:48.614Z,994.49
2016-06-05T04:45:48.616Z,994.48
2016-06-05T04:46:48.636Z,994.48
2016-06-05T04:47:48.622Z,994.47
2016-06-05T04:49:48.878Z,994.49
2016-06-05T04:53:48.701Z,994.48
2016-06-05T04:54:48.703Z,994.49
2016-06-05T04:55:48.706Z,994.46
2016-06-05T04:56:48.708Z,994.52
2016-06-05T04:57:48.900Z,994.51
2016-06-05T04:58:49.230Z,994.53
2016-06-05T04:59:48.733Z,994.53
2016-06-05T05:00:48.735Z,994.55
2016-06-05T05:01:48.754Z,994.54
2016-06-05T05:04:48.793Z,994.5
2016-06-05T05:06:49.018Z,994.48
2016-06-05T05:07:48.817Z,994.49
2016-06-05T05:08:48.820Z,994.47
2016-06-05T05:09:48.823Z,994.5
2016-06-05T05:10:48.841Z,994.52
2016-06-05T05:11:48.843Z,994.55
2016-06-05T05:12:48.845Z,994.54
2016-06-05T05:13:48.896Z,994.5
2016-06-05T05:14:48.882Z,994.56
2016-06-05T05:15:49.104Z,994.57
2016-06-05T05:16:48.887Z,994.62
2016-06-05T05:17:49.109Z,994.57
2016-06-05T05:18:48.909Z,994.63
2016-06-05T05:19:49.114Z,994.66
2016-06-05T05:20:48.930Z,994.62
2016-06-05T05:21:48.964Z,994.66
2016-06-05T05:22:48.936Z,994.64
2016-06-05T05:23:48.954Z,994.64
2016-06-05T05:24:48.988Z,994.67
2016-06-05T05:25:49.162Z,994.66
2016-06-05T05:26:49.212Z,994.69
2016-06-05T05:27:48.996Z,994.67
2016-06-05T05:28:49.217Z,994.68
2016-06-05T05:29:49.016Z,994.66
2016-06-05T05:30:49.019Z,994.69
2016-06-05T05:31:49.022Z,994.75
2016-06-05T05:32:49.041Z,994.73
2016-06-05T05:33:49.043Z,994.74
2016-06-05T05:34:49.046Z,994.77
2016-06-05T05:35:49.063Z,994.75
2016-06-05T05:36:49.066Z,994.75
2016-06-05T05:37:49.085Z,994.79
2016-06-05T05:38:49.104Z,994.73
2016-06-05T05:39:49.106Z,994.8
2016-06-05T05:40:49.109Z,994.81
2016-06-05T05:41:49.112Z,994.76
2016-06-05T05:42:49.130Z,994.79
2016-06-05T05:43:49.132Z,994.82
2016-06-05T05:44:49.150Z,994.82
2016-06-05T05:45:49.357Z,994.88
2016-06-05T05:46:49.578Z,994.88
2016-06-05T05:47:49.175Z,994.86
2016-06-05T05:49:49.211Z,994.91
2016-06-05T05:50:49.636Z,994.92
2016-06-05T05:51:49.217Z,994.9
2016-06-05T05:53:49.237Z,994.9
2016-06-05T05:54:49.256Z,994.89
2016-06-05T05:55:49.258Z,994.92
2016-06-05T05:56:49.277Z,994.92
2016-06-05T05:57:49.264Z,994.92
2016-06-05T05:58:49.283Z,994.97
2016-06-05T05:59:49.300Z,994.94
2016-06-05T06:00:49.303Z,994.92
2016-06-05T06:01:49.509Z,994.94
2016-06-05T06:02:49.324Z,994.95
2016-06-05T06:03:49.327Z,994.97
2016-06-05T06:04:49.549Z,994.95
2016-06-05T06:05:49.785Z,994.93
2016-06-05T06:06:49.366Z,994.91
2016-06-05T06:07:49.368Z,994.89
2016-06-05T06:08:49.387Z,994.9
2016-06-05T06:09:49.390Z,994.89
2016-06-05T06:10:49.392Z,994.86
2016-06-05T06:11:49.614Z,994.89
2016-06-05T06:12:49.445Z,994.84
2016-06-05T06:13:49.635Z,994.88
2016-06-05T06:14:49.450Z,994.87
2016-06-05T06:15:49.453Z,994.91
2016-06-05T06:16:49.471Z,994.93
2016-06-05T06:17:49.473Z,994.96
2016-06-05T06:18:49.476Z,994.95
2016-06-05T06:19:49.511Z,994.96
2016-06-05T06:20:49.498Z,994.96
2016-06-05T06:21:49.516Z,994.97
2016-06-05T06:22:49.519Z,995
2016-06-05T06:23:49.536Z,995.01
2016-06-05T06:25:49.777Z,995.02
2016-06-05T06:26:49.575Z,995.01
2016-06-05T06:27:49.578Z,995.01
2016-06-05T06:28:50.785Z,994.99
2016-06-05T06:29:49.599Z,995.02
2016-06-05T06:30:50.243Z,995.03
2016-06-05T06:31:49.621Z,995.04
2016-06-05T06:32:50.061Z,995.04
2016-06-05T06:33:49.657Z,995.03
2016-06-05T06:34:49.660Z,995.06
2016-06-05T06:35:49.663Z,995.07
2016-06-05T06:36:49.868Z,995.1
2016-06-05T06:37:49.887Z,995.09
2016-06-05T06:38:49.687Z,995.07
2016-06-05T06:39:49.705Z,995.07
2016-06-05T06:40:49.910Z,995.09
2016-06-05T06:41:49.726Z,995.1
2016-06-05T06:42:49.869Z,995.11
2016-06-05T06:44:49.984Z,995.11
2016-06-05T06:45:49.971Z,995.12
2016-06-05T06:46:49.770Z,995.13
2016-06-05T06:47:49.805Z,995.13
2016-06-05T06:48:49.807Z,995.18
2016-06-05T06:49:49.825Z,995.15
2016-06-05T06:50:49.828Z,995.18
2016-06-05T06:51:49.831Z,995.2
2016-06-05T06:52:49.834Z,995.19
2016-06-05T06:53:49.867Z,995.22
2016-06-05T06:54:49.870Z,995.21
2016-06-05T06:55:49.888Z,995.19
2016-06-05T06:56:49.891Z,995.23
2016-06-05T06:57:50.222Z,995.22
2016-06-05T06:58:49.944Z,995.2
2016-06-05T06:59:50.118Z,995.25
2016-06-05T07:00:50.121Z,995.23
2016-06-05T07:01:49.936Z,995.21
2016-06-05T07:03:50.394Z,995.26
2016-06-05T07:04:49.975Z,995.28
2016-06-05T07:05:50.228Z,995.27
2016-06-05T07:06:50.216Z,995.27
2016-06-05T07:07:50.015Z,995.25
2016-06-05T07:08:50.018Z,995.29
2016-06-05T07:09:50.036Z,995.29
2016-06-05T07:10:50.038Z,995.23
2016-06-05T07:11:50.056Z,995.27
2016-06-05T07:12:50.621Z,995.28
2016-06-05T07:13:50.485Z,995.29
2016-06-05T07:14:50.080Z,995.29
2016-06-05T07:15:50.099Z,995.3
2016-06-05T07:16:50.304Z,995.28
2016-06-05T07:17:50.150Z,995.3
2016-06-05T07:18:50.138Z,995.3
2016-06-05T07:19:50.141Z,995.3
2016-06-05T07:20:50.159Z,995.3
2016-06-05T07:21:50.161Z,995.29
2016-06-05T07:22:50.180Z,995.36
2016-06-05T07:23:50.183Z,995.34
2016-06-05T07:24:50.201Z,995.32
2016-06-05T07:25:50.406Z,995.34
2016-06-05T07:26:51.066Z,995.31
2016-06-05T07:27:50.303Z,995.32
2016-06-05T07:28:50.259Z,995.3
2016-06-05T07:29:50.277Z,995.31
2016-06-05T07:30:50.264Z,995.29
2016-06-05T07:31:50.283Z,995.3
2016-06-05T07:32:50.300Z,995.3
2016-06-05T07:33:50.506Z,995.29
2016-06-05T07:34:50.525Z,995.32
2016-06-05T07:35:50.574Z,995.26
2016-06-05T07:36:50.343Z,995.29
2016-06-05T07:37:50.345Z,995.23
2016-06-05T07:39:50.382Z,995.25
2016-06-05T07:40:50.400Z,995.26
2016-06-05T07:41:50.418Z,995.28
2016-06-05T07:42:50.421Z,995.28
2016-06-05T07:43:51.018Z,995.27
2016-06-05T07:44:50.457Z,995.24
2016-06-05T07:45:50.460Z,995.26
2016-06-05T07:46:50.682Z,995.26
2016-06-05T07:47:50.685Z,995.27
2016-06-05T07:48:50.703Z,995.26
2016-06-05T07:50:50.521Z,995.24
2016-06-05T07:51:50.523Z,995.21
2016-06-05T07:52:50.542Z,995.24
2016-06-05T07:53:50.545Z,995.22
2016-06-05T07:54:50.562Z,995.24
2016-06-05T07:55:50.597Z,995.24
2016-06-05T07:56:50.584Z,995.22
2016-06-05T07:57:51.039Z,995.22
2016-06-05T07:58:51.262Z,995.23
2016-06-05T07:59:50.639Z,995.23
2016-06-05T08:00:50.657Z,995.21
2016-06-05T08:01:50.879Z,995.24
2016-06-05T08:02:50.678Z,995.22
2016-06-05T08:03:50.680Z,995.25
2016-06-05T08:04:50.886Z,995.29
2016-06-05T08:05:50.702Z,995.27
2016-06-05T08:06:50.720Z,995.28
2016-06-05T08:07:50.926Z,995.3
2016-06-05T08:08:50.772Z,995.33
2016-06-05T08:10:50.777Z,995.34
2016-06-05T08:11:50.796Z,995.32
2016-06-05T08:12:51.080Z,995.32
2016-06-05T08:13:50.802Z,995.35
2016-06-05T08:14:50.820Z,995.33
2016-06-05T08:15:50.853Z,995.33
2016-06-05T08:16:50.856Z,995.35
2016-06-05T08:18:50.893Z,995.36
2016-06-05T08:19:50.879Z,995.34
2016-06-05T08:20:50.898Z,995.35
2016-06-05T08:21:50.917Z,995.35
2016-06-05T08:22:51.325Z,995.38
2016-06-05T08:23:51.220Z,995.38
2016-06-05T08:24:50.956Z,995.34
2016-06-05T08:25:50.959Z,995.36
2016-06-05T08:26:51.008Z,995.35
2016-06-05T08:27:51.011Z,995.35
2016-06-05T08:28:51.217Z,995.35
2016-06-05T08:29:51.017Z,995.29
2016-06-05T08:30:51.034Z,995.37
2016-06-05T08:31:51.272Z,995.35
2016-06-05T08:32:51.275Z,995.29
2016-06-05T08:33:51.075Z,995.27
2016-06-05T08:34:51.092Z,995.31
2016-06-05T08:35:51.095Z,995.28
2016-06-05T08:36:51.144Z,995.32
2016-06-05T08:37:51.335Z,995.3
2016-06-05T08:38:51.337Z,995.33
2016-06-05T08:39:51.152Z,995.34
2016-06-05T08:40:51.171Z,995.3
2016-06-05T08:41:51.205Z,995.36
2016-06-05T08:42:51.192Z,995.37
2016-06-05T08:43:51.413Z,995.33
2016-06-05T08:44:51.244Z,995.35
2016-06-05T08:45:51.247Z,995.39
2016-06-05T08:46:51.249Z,995.39
2016-06-05T08:47:51.284Z,995.38
2016-06-05T08:48:51.490Z,995.4
2016-06-05T08:49:51.289Z,995.35
2016-06-05T08:50:51.307Z,995.38
2016-06-05T08:51:51.716Z,995.39
2016-06-05T08:53:51.550Z,995.36
2016-06-05T08:54:51.364Z,995.4
2016-06-05T08:55:51.383Z,995.42
2016-06-05T08:56:51.417Z,995.4
2016-06-05T08:57:51.404Z,995.44
2016-06-05T08:58:51.422Z,995.43
2016-06-05T08:59:51.456Z,995.44
2016-06-05T09:00:51.459Z,995.44
2016-06-05T09:01:51.493Z,995.41
2016-06-05T09:02:51.480Z,995.47
2016-06-05T09:03:51.483Z,995.45
2016-06-05T09:04:51.501Z,995.48
2016-06-05T09:05:51.520Z,995.5
2016-06-05T09:06:51.538Z,995.5
2016-06-05T09:07:51.759Z,995.49
2016-06-05T09:08:51.575Z,995.47
2016-06-05T09:09:51.577Z,995.45
2016-06-05T09:10:51.596Z,995.44
2016-06-05T09:11:51.598Z,995.47
2016-06-05T09:13:51.635Z,995.45
2016-06-05T09:14:51.856Z,995.48
2016-06-05T09:15:51.890Z,995.51
2016-06-05T09:16:51.674Z,995.51
2016-06-05T09:17:51.693Z,995.53
2016-06-05T09:18:51.710Z,995.53
2016-06-05T09:19:51.713Z,995.53
2016-06-05T09:20:51.732Z,995.55
2016-06-05T09:21:51.954Z,995.49
2016-06-05T09:23:51.786Z,995.5
2016-06-05T09:24:52.023Z,995.52
2016-06-05T09:25:51.808Z,995.54
2016-06-05T09:26:51.826Z,995.57
2016-06-05T09:28:51.862Z,995.54
2016-06-05T09:29:52.084Z,995.54
2016-06-05T09:30:51.884Z,995.57
2016-06-05T09:31:51.902Z,995.57
2016-06-05T09:32:51.920Z,995.58
2016-06-05T09:33:51.923Z,995.64
2016-06-05T09:34:52.145Z,995.72
2016-06-05T09:35:51.959Z,995.78
2016-06-05T09:36:51.993Z,995.86
2016-06-05T09:37:51.996Z,995.88
2016-06-05T09:38:52.014Z,995.82
2016-06-05T09:39:52.017Z,995.76
2016-06-05T09:40:52.035Z,995.77
2016-06-05T09:41:52.273Z,995.81
2016-06-05T09:42:52.072Z,995.7
2016-06-05T09:43:52.605Z,995.68
2016-06-05T09:44:52.108Z,995.75
2016-06-05T09:45:52.315Z,995.69
2016-06-05T09:46:52.146Z,995.58
2016-06-05T09:47:52.382Z,995.57
2016-06-05T09:48:52.166Z,995.55
2016-06-05T09:49:52.185Z,995.56
2016-06-05T09:50:52.219Z,995.62
2016-06-05T09:51:52.424Z,995.65
2016-06-05T09:52:52.443Z,995.67
2016-06-05T09:54:52.260Z,995.74
2016-06-05T09:55:52.279Z,995.68
2016-06-05T09:56:52.704Z,995.74
2016-06-05T09:57:52.675Z,995.75
2016-06-05T09:58:52.334Z,995.69
2016-06-05T09:59:52.353Z,995.6
2016-06-05T10:00:52.387Z,995.59
2016-06-05T10:01:52.389Z,995.55
2016-06-05T10:03:52.644Z,995.47
2016-06-05T10:05:52.446Z,995.42
2016-06-05T10:06:52.668Z,995.45
2016-06-05T10:07:52.499Z,995.54
2016-06-05T10:08:52.502Z,995.55
2016-06-05T10:09:52.519Z,995.47
2016-06-05T10:10:52.757Z,995.48
2016-06-05T10:11:52.572Z,995.48
2016-06-05T10:12:52.591Z,995.47
2016-06-05T10:13:53.390Z,995.48
2016-06-05T10:14:52.610Z,995.47
2016-06-05T10:15:52.629Z,995.48
2016-06-05T10:16:52.866Z,995.5
2016-06-05T10:17:52.869Z,995.59
2016-06-05T10:18:52.684Z,995.54
2016-06-05T10:19:52.702Z,995.5
2016-06-05T10:20:52.721Z,995.47
2016-06-05T10:21:52.723Z,995.45
2016-06-05T10:22:52.976Z,995.45
2016-06-05T10:23:52.792Z,995.44
2016-06-05T10:24:52.982Z,995.44
2016-06-05T10:26:53.018Z,995.38
2016-06-05T10:27:53.239Z,995.42
2016-06-05T10:28:52.852Z,995.34
2016-06-05T10:29:53.090Z,995.34
2016-06-05T10:30:52.920Z,995.36
2016-06-05T10:31:52.906Z,995.34
2016-06-05T10:32:52.925Z,995.33
2016-06-05T10:33:52.990Z,995.31
2016-06-05T10:34:52.962Z,995.32
2016-06-05T10:35:52.995Z,995.31
2016-06-05T10:36:53.186Z,995.28
2016-06-05T10:37:53.001Z,995.32
2016-06-05T10:38:53.019Z,995.33
2016-06-05T10:39:53.288Z,995.29
2016-06-05T10:40:53.056Z,995.29
2016-06-05T10:41:53.074Z,995.28
2016-06-05T10:42:53.108Z,995.28
2016-06-05T10:43:53.111Z,995.27
2016-06-05T10:44:53.144Z,995.25
2016-06-05T10:45:53.148Z,995.26
2016-06-05T10:46:53.182Z,995.28
2016-06-05T10:47:53.184Z,995.24
2016-06-05T10:48:53.202Z,995.24
2016-06-05T10:49:53.221Z,995.19
2016-06-05T10:50:53.240Z,995.18
2016-06-05T10:51:53.257Z,995.18
2016-06-05T10:52:53.276Z,995.12
2016-06-05T10:54:53.313Z,995.17
2016-06-05T10:55:53.315Z,995.14
2016-06-05T10:56:53.334Z,995.25
2016-06-05T10:57:53.367Z,995.26
2016-06-05T10:58:53.370Z,995.3
2016-06-05T10:59:53.389Z,995.29
2016-06-05T11:00:53.406Z,995.31
2016-06-05T11:02:53.475Z,995.27
2016-06-05T11:03:53.493Z,995.28
2016-06-05T11:04:53.481Z,995.27
2016-06-05T11:05:53.701Z,995.26
2016-06-05T11:06:54.125Z,995.27
2016-06-05T11:07:53.535Z,995.28
2016-06-05T11:08:53.569Z,995.25
2016-06-05T11:09:53.572Z,995.28
2016-06-05T11:10:53.590Z,995.29
2016-06-05T11:12:53.642Z,995.21
2016-06-05T11:13:53.645Z,995.23
2016-06-05T11:14:53.664Z,995.25
2016-06-05T11:15:53.884Z,995.25
2016-06-05T11:16:53.715Z,995.29
2016-06-05T11:17:53.718Z,995.24
2016-06-05T11:18:53.752Z,995.29
2016-06-05T11:19:53.739Z,995.28
2016-06-05T11:20:53.960Z,995.26
2016-06-05T11:21:53.791Z,995.28
2016-06-05T11:22:53.793Z,995.28
2016-06-05T11:23:53.812Z,995.27
2016-06-05T11:24:54.237Z,995.27
2016-06-05T11:25:53.849Z,995.3
2016-06-05T11:26:53.883Z,995.35
2016-06-05T11:27:53.902Z,995.42
2016-06-05T11:28:54.201Z,995.43
2016-06-05T11:29:53.923Z,995.43
2016-06-05T11:30:56.956Z,995.44
2016-06-05T11:31:53.959Z,995.3
2016-06-05T11:32:53.978Z,995.25
2016-06-05T11:33:54.198Z,995.23
2016-06-05T11:34:54.233Z,995.2
2016-06-05T11:35:54.236Z,995.21
2016-06-05T11:36:54.050Z,995.18
2016-06-05T11:37:54.272Z,995.18
2016-06-05T11:38:54.119Z,995.12
2016-06-05T11:39:54.122Z,995.17
2016-06-05T11:40:54.530Z,995.22
2016-06-05T11:41:54.127Z,995.2
2016-06-05T11:42:54.363Z,995.18
2016-06-05T11:43:54.163Z,995.16
2016-06-05T11:44:54.181Z,995.18
2016-06-05T11:45:54.403Z,995.17
2016-06-05T11:46:54.218Z,995.16
2016-06-05T11:47:54.268Z,995.1
2016-06-05T11:48:54.271Z,995.17
2016-06-05T11:49:54.288Z,995.17
2016-06-05T11:50:54.307Z,995.19
2016-06-05T11:51:54.324Z,995.15
2016-06-05T11:52:54.531Z,995.1
2016-06-05T11:53:54.363Z,995.09
2016-06-05T11:54:54.380Z,995.08
2016-06-05T11:55:54.398Z,995.02
2016-06-05T11:56:54.417Z,994.99
2016-06-05T11:57:55.170Z,994.97
2016-06-05T11:58:54.468Z,994.97
2016-06-05T11:59:54.909Z,994.95
2016-06-05T12:00:54.490Z,994.88
2016-06-05T12:01:54.508Z,994.91
2016-06-05T12:02:54.933Z,994.91
2016-06-05T12:03:54.545Z,994.88
2016-06-05T12:04:54.594Z,994.89
2016-06-05T12:05:54.582Z,994.86
2016-06-05T12:06:54.601Z,994.89
2016-06-05T12:07:54.836Z,994.9
2016-06-05T12:08:54.887Z,994.89
2016-06-05T12:09:54.671Z,994.9
2016-06-05T12:10:54.908Z,994.87
2016-06-05T12:11:54.692Z,994.87
2016-06-05T12:12:54.945Z,994.87
2016-06-05T12:13:54.744Z,994.86
2016-06-05T12:14:54.761Z,994.86
2016-06-05T12:15:55.000Z,994.87
2016-06-05T12:16:54.799Z,994.84
2016-06-05T12:17:54.816Z,994.84
2016-06-05T12:18:54.820Z,994.81
2016-06-05T12:19:54.838Z,994.83
2016-06-05T12:20:54.857Z,994.85
2016-06-05T12:21:54.891Z,994.86
2016-06-05T12:22:55.533Z,994.83
2016-06-05T12:23:55.161Z,994.83
2016-06-05T12:25:54.964Z,994.81
2016-06-05T12:26:55.168Z,994.83
2016-06-05T12:27:55.015Z,994.81
2016-06-05T12:28:55.018Z,994.81
2016-06-05T12:29:55.037Z,994.83
2016-06-05T12:30:55.054Z,994.78
2016-06-05T12:31:55.073Z,994.78
2016-06-05T12:32:55.310Z,994.82
2016-06-05T12:33:55.110Z,994.78
2016-06-05T12:34:55.129Z,994.79
2016-06-05T12:35:55.147Z,994.8
2016-06-05T12:36:55.367Z,994.81
2016-06-05T12:37:55.403Z,994.79
2016-06-05T12:38:55.233Z,994.8
2016-06-05T12:39:55.220Z,994.79
2016-06-05T12:40:55.441Z,994.78
2016-06-05T12:42:55.369Z,994.78
2016-06-05T12:44:55.312Z,994.81
2016-06-05T12:45:55.345Z,994.77
2016-06-05T12:46:55.364Z,994.75
2016-06-05T12:47:55.366Z,994.76
2016-06-05T12:48:55.385Z,994.73
2016-06-05T12:50:55.437Z,994.73
2016-06-05T12:51:55.440Z,994.7
2016-06-05T12:52:55.474Z,994.7
2016-06-05T12:53:55.508Z,994.77
2016-06-05T12:54:55.744Z,994.82
2016-06-05T12:55:55.732Z,994.84
2016-06-05T12:56:55.547Z,994.79
2016-06-05T12:57:55.785Z,994.78
2016-06-05T12:58:55.599Z,994.8
2016-06-05T12:59:55.601Z,994.76
2016-06-05T13:00:55.636Z,994.78
2016-06-05T13:02:55.656Z,994.75
2016-06-05T13:03:55.691Z,994.71
2016-06-05T13:04:55.709Z,994.75
2016-06-05T13:05:55.712Z,994.75
2016-06-05T13:06:55.949Z,994.76
2016-06-05T13:07:55.764Z,994.78
2016-06-05T13:08:55.829Z,994.79
2016-06-05T13:10:56.225Z,994.81
2016-06-05T13:12:56.059Z,994.78
2016-06-05T13:13:55.874Z,994.75
2016-06-05T13:14:55.892Z,994.76
2016-06-05T13:15:56.348Z,994.72
2016-06-05T13:17:55.963Z,994.72
2016-06-05T13:18:56.169Z,994.73
2016-06-05T13:19:56.436Z,994.72
2016-06-05T13:20:56.221Z,994.7
2016-06-05T13:21:56.036Z,994.71
2016-06-05T13:22:56.054Z,994.69
2016-06-05T13:24:56.141Z,994.62
2016-06-05T13:25:56.182Z,994.63
2016-06-05T13:26:56.208Z,994.63